sensor_id;sensor_type;location;lat;lon;timestamp;P1;durP1;ratioP1;P2;durP2;ratioP2
19923;SDS011;10124;53.068;18.224;2023-04-24T00:02:09;17.23;;;14.43;;
19923;SDS011;10124;53.068;18.224;2023-04-24T00:04:38;16.43;;;14.53;;
19923;SDS011;10124;53.068;18.224;2023-04-24T00:07:11;16.93;;;13.87;;
19923;SDS011;10124;53.068;18.224;2023-04-24T00:09:39;21.00;;;15.40;;
19923;SDS011;10124;53.068;18.224;2023-04-24T00:12:07;20.27;;;14.87;;
19923;SDS011;10124;53.068;18.224;2023-04-24T00:14:34;15.83;;;14.03;;
19923;SDS011;10124;53.068;18.224;2023-04-24T00:17:02;19.70;;;14.37;;
19923;SDS011;10124;53.068;18.224;2023-04-24T00:19:30;16.93;;;13.67;;
19923;SDS011;10124;53.068;18.224;2023-04-24T00:21:57;22.77;;;16.23;;
19923;SDS011;10124;53.068;18.224;2023-04-24T00:24:24;20.13;;;15.13;;
19923;SDS011;10124;53.068;18.224;2023-04-24T00:26:51;19.67;;;15.17;;
19923;SDS011;10124;53.068;18.224;2023-04-24T00:29:19;17.30;;;14.57;;
19923;SDS011;10124;53.068;18.224;2023-04-24T00:31:46;23.33;;;16.10;;
19923;SDS011;10124;53.068;18.224;2023-04-24T00:34:13;22.47;;;16.40;;
19923;SDS011;10124;53.068;18.224;2023-04-24T00:36:41;21.97;;;16.40;;
19923;SDS011;10124;53.068;18.224;2023-04-24T00:39:08;21.47;;;15.97;;
19923;SDS011;10124;53.068;18.224;2023-04-24T00:41:35;23.20;;;16.17;;
19923;SDS011;10124;53.068;18.224;2023-04-24T00:44:02;20.83;;;16.73;;
19923;SDS011;10124;53.068;18.224;2023-04-24T00:46:30;20.43;;;16.33;;
19923;SDS011;10124;53.068;18.224;2023-04-24T00:48:59;21.80;;;16.90;;
19923;SDS011;10124;53.068;18.224;2023-04-24T00:51:26;23.60;;;16.83;;
19923;SDS011;10124;53.068;18.224;2023-04-24T00:53:54;22.67;;;17.60;;
19923;SDS011;10124;53.068;18.224;2023-04-24T00:56:21;22.47;;;16.37;;
19923;SDS011;10124;53.068;18.224;2023-04-24T00:58:50;22.60;;;16.33;;
19923;SDS011;10124;53.068;18.224;2023-04-24T01:01:21;24.60;;;17.73;;
19923;SDS011;10124;53.068;18.224;2023-04-24T01:03:50;23.83;;;18.27;;
19923;SDS011;10124;53.068;18.224;2023-04-24T01:06:19;20.93;;;17.53;;
19923;SDS011;10124;53.068;18.224;2023-04-24T01:08:47;24.47;;;18.10;;
19923;SDS011;10124;53.068;18.224;2023-04-24T01:11:15;23.57;;;18.67;;
19923;SDS011;10124;53.068;18.224;2023-04-24T01:13:44;27.23;;;20.30;;
19923;SDS011;10124;53.068;18.224;2023-04-24T01:16:13;29.23;;;20.57;;
19923;SDS011;10124;53.068;18.224;2023-04-24T01:18:42;28.83;;;18.70;;
19923;SDS011;10124;53.068;18.224;2023-04-24T01:21:10;27.87;;;21.37;;
19923;SDS011;10124;53.068;18.224;2023-04-24T01:23:44;30.13;;;20.70;;
19923;SDS011;10124;53.068;18.224;2023-04-24T01:26:12;30.63;;;20.70;;
19923;SDS011;10124;53.068;18.224;2023-04-24T01:28:44;26.70;;;18.80;;
19923;SDS011;10124;53.068;18.224;2023-04-24T01:31:11;31.33;;;21.13;;
19923;SDS011;10124;53.068;18.224;2023-04-24T01:33:39;31.77;;;20.93;;
19923;SDS011;10124;53.068;18.224;2023-04-24T01:36:08;31.60;;;19.80;;
19923;SDS011;10124;53.068;18.224;2023-04-24T01:38:38;28.23;;;19.23;;
19923;SDS011;10124;53.068;18.224;2023-04-24T01:41:05;28.47;;;19.13;;
19923;SDS011;10124;53.068;18.224;2023-04-24T01:43:32;28.47;;;19.13;;
19923;SDS011;10124;53.068;18.224;2023-04-24T01:45:59;28.97;;;19.83;;
19923;SDS011;10124;53.068;18.224;2023-04-24T01:48:27;35.00;;;21.47;;
19923;SDS011;10124;53.068;18.224;2023-04-24T01:50:54;28.40;;;19.43;;
19923;SDS011;10124;53.068;18.224;2023-04-24T01:53:23;29.87;;;19.43;;
19923;SDS011;10124;53.068;18.224;2023-04-24T01:55:50;33.50;;;18.87;;
19923;SDS011;10124;53.068;18.224;2023-04-24T01:58:17;35.17;;;20.07;;
19923;SDS011;10124;53.068;18.224;2023-04-24T02:00:44;32.90;;;20.10;;
19923;SDS011;10124;53.068;18.224;2023-04-24T02:03:13;31.40;;;21.20;;
19923;SDS011;10124;53.068;18.224;2023-04-24T02:05:43;35.20;;;22.57;;
19923;SDS011;10124;53.068;18.224;2023-04-24T02:08:12;32.57;;;20.93;;
19923;SDS011;10124;53.068;18.224;2023-04-24T02:10:39;33.97;;;21.67;;
19923;SDS011;10124;53.068;18.224;2023-04-24T02:13:06;30.53;;;19.73;;
19923;SDS011;10124;53.068;18.224;2023-04-24T02:15:33;37.50;;;22.07;;
19923;SDS011;10124;53.068;18.224;2023-04-24T02:18:02;32.00;;;22.03;;
19923;SDS011;10124;53.068;18.224;2023-04-24T02:20:31;30.03;;;21.53;;
19923;SDS011;10124;53.068;18.224;2023-04-24T02:23:01;36.40;;;23.13;;
19923;SDS011;10124;53.068;18.224;2023-04-24T02:25:28;34.03;;;23.57;;
19923;SDS011;10124;53.068;18.224;2023-04-24T02:27:55;37.07;;;22.67;;
19923;SDS011;10124;53.068;18.224;2023-04-24T02:30:22;35.53;;;24.77;;
19923;SDS011;10124;53.068;18.224;2023-04-24T02:32:49;36.67;;;23.97;;
19923;SDS011;10124;53.068;18.224;2023-04-24T02:35:17;35.73;;;22.17;;
19923;SDS011;10124;53.068;18.224;2023-04-24T02:37:44;37.93;;;23.73;;
19923;SDS011;10124;53.068;18.224;2023-04-24T02:40:12;36.00;;;22.13;;
19923;SDS011;10124;53.068;18.224;2023-04-24T02:42:39;30.80;;;21.63;;
19923;SDS011;10124;53.068;18.224;2023-04-24T02:45:06;31.17;;;22.20;;
19923;SDS011;10124;53.068;18.224;2023-04-24T02:47:34;40.63;;;22.10;;
19923;SDS011;10124;53.068;18.224;2023-04-24T02:50:02;34.70;;;21.80;;
19923;SDS011;10124;53.068;18.224;2023-04-24T02:52:30;32.00;;;22.20;;
19923;SDS011;10124;53.068;18.224;2023-04-24T02:54:57;38.17;;;25.07;;
19923;SDS011;10124;53.068;18.224;2023-04-24T02:57:25;41.03;;;23.77;;
19923;SDS011;10124;53.068;18.224;2023-04-24T02:59:52;33.83;;;23.10;;
19923;SDS011;10124;53.068;18.224;2023-04-24T03:02:19;34.73;;;23.57;;
19923;SDS011;10124;53.068;18.224;2023-04-24T03:04:47;38.00;;;22.73;;
19923;SDS011;10124;53.068;18.224;2023-04-24T03:07:15;36.20;;;24.53;;
19923;SDS011;10124;53.068;18.224;2023-04-24T03:09:42;37.03;;;24.60;;
19923;SDS011;10124;53.068;18.224;2023-04-24T03:12:10;36.73;;;23.33;;
19923;SDS011;10124;53.068;18.224;2023-04-24T03:14:38;36.53;;;24.30;;
19923;SDS011;10124;53.068;18.224;2023-04-24T03:17:06;38.07;;;24.13;;
19923;SDS011;10124;53.068;18.224;2023-04-24T03:19:33;31.83;;;22.23;;
19923;SDS011;10124;53.068;18.224;2023-04-24T03:22:08;35.80;;;24.63;;
19923;SDS011;10124;53.068;18.224;2023-04-24T03:24:37;38.57;;;23.90;;
19923;SDS011;10124;53.068;18.224;2023-04-24T03:27:04;36.63;;;24.73;;
19923;SDS011;10124;53.068;18.224;2023-04-24T03:29:45;41.80;;;26.60;;
19923;SDS011;10124;53.068;18.224;2023-04-24T03:32:14;38.37;;;24.67;;
19923;SDS011;10124;53.068;18.224;2023-04-24T03:34:42;35.93;;;25.00;;
19923;SDS011;10124;53.068;18.224;2023-04-24T03:37:13;46.63;;;25.23;;
19923;SDS011;10124;53.068;18.224;2023-04-24T03:39:47;35.73;;;25.20;;
19923;SDS011;10124;53.068;18.224;2023-04-24T03:42:21;38.57;;;23.70;;
19923;SDS011;10124;53.068;18.224;2023-04-24T03:44:53;41.53;;;25.83;;
19923;SDS011;10124;53.068;18.224;2023-04-24T03:47:24;36.10;;;23.60;;
19923;SDS011;10124;53.068;18.224;2023-04-24T03:49:54;37.83;;;25.10;;
19923;SDS011;10124;53.068;18.224;2023-04-24T03:52:23;38.40;;;25.57;;
19923;SDS011;10124;53.068;18.224;2023-04-24T03:54:50;37.20;;;25.93;;
19923;SDS011;10124;53.068;18.224;2023-04-24T03:57:18;40.90;;;27.53;;
19923;SDS011;10124;53.068;18.224;2023-04-24T03:59:57;36.73;;;26.27;;
19923;SDS011;10124;53.068;18.224;2023-04-24T04:02:26;35.03;;;24.93;;
19923;SDS011;10124;53.068;18.224;2023-04-24T04:04:53;38.97;;;25.67;;
19923;SDS011;10124;53.068;18.224;2023-04-24T04:07:21;42.50;;;25.40;;
19923;SDS011;10124;53.068;18.224;2023-04-24T04:09:48;36.90;;;24.93;;
19923;SDS011;10124;53.068;18.224;2023-04-24T04:12:16;44.80;;;25.47;;
19923;SDS011;10124;53.068;18.224;2023-04-24T04:14:43;44.20;;;26.50;;
19923;SDS011;10124;53.068;18.224;2023-04-24T04:17:13;39.80;;;25.37;;
19923;SDS011;10124;53.068;18.224;2023-04-24T04:19:41;40.77;;;25.50;;
19923;SDS011;10124;53.068;18.224;2023-04-24T04:22:10;39.63;;;26.63;;
19923;SDS011;10124;53.068;18.224;2023-04-24T04:24:41;41.43;;;27.93;;
19923;SDS011;10124;53.068;18.224;2023-04-24T04:27:09;41.60;;;25.83;;
19923;SDS011;10124;53.068;18.224;2023-04-24T04:29:46;38.20;;;24.63;;
19923;SDS011;10124;53.068;18.224;2023-04-24T04:32:15;35.67;;;25.60;;
19923;SDS011;10124;53.068;18.224;2023-04-24T04:34:42;41.80;;;27.70;;
19923;SDS011;10124;53.068;18.224;2023-04-24T04:37:12;37.47;;;25.90;;
19923;SDS011;10124;53.068;18.224;2023-04-24T04:39:49;37.17;;;25.40;;
19923;SDS011;10124;53.068;18.224;2023-04-24T04:42:21;42.77;;;27.37;;
19923;SDS011;10124;53.068;18.224;2023-04-24T04:44:50;38.67;;;25.07;;
19923;SDS011;10124;53.068;18.224;2023-04-24T04:47:23;34.33;;;25.53;;
19923;SDS011;10124;53.068;18.224;2023-04-24T04:49:53;40.83;;;26.97;;
19923;SDS011;10124;53.068;18.224;2023-04-24T04:52:24;36.07;;;24.47;;
19923;SDS011;10124;53.068;18.224;2023-04-24T04:55:09;44.10;;;25.10;;
19923;SDS011;10124;53.068;18.224;2023-04-24T04:58:04;36.73;;;25.13;;
19923;SDS011;10124;53.068;18.224;2023-04-24T05:00:31;44.03;;;26.37;;
19923;SDS011;10124;53.068;18.224;2023-04-24T05:03:07;30.53;;;23.10;;
19923;SDS011;10124;53.068;18.224;2023-04-24T05:05:47;32.87;;;24.87;;
19923;SDS011;10124;53.068;18.224;2023-04-24T05:08:17;34.50;;;22.60;;
19923;SDS011;10124;53.068;18.224;2023-04-24T05:10:53;31.83;;;22.40;;
19923;SDS011;10124;53.068;18.224;2023-04-24T05:13:22;29.03;;;21.17;;
19923;SDS011;10124;53.068;18.224;2023-04-24T05:15:53;30.30;;;21.30;;
19923;SDS011;10124;53.068;18.224;2023-04-24T05:18:20;25.43;;;18.77;;
19923;SDS011;10124;53.068;18.224;2023-04-24T05:20:48;26.50;;;20.42;;
19923;SDS011;10124;53.068;18.224;2023-04-24T05:23:16;25.08;;;18.33;;
19923;SDS011;10124;53.068;18.224;2023-04-24T05:25:46;23.53;;;17.93;;
19923;SDS011;10124;53.068;18.224;2023-04-24T05:28:14;23.40;;;16.63;;
19923;SDS011;10124;53.068;18.224;2023-04-24T05:30:45;23.37;;;18.13;;
19923;SDS011;10124;53.068;18.224;2023-04-24T05:33:16;25.00;;;18.50;;
19923;SDS011;10124;53.068;18.224;2023-04-24T05:35:43;24.60;;;18.67;;
19923;SDS011;10124;53.068;18.224;2023-04-24T05:38:13;23.50;;;17.83;;
19923;SDS011;10124;53.068;18.224;2023-04-24T05:40:44;28.27;;;19.73;;
19923;SDS011;10124;53.068;18.224;2023-04-24T05:43:12;25.83;;;20.08;;
19923;SDS011;10124;53.068;18.224;2023-04-24T05:45:39;25.65;;;17.92;;
19923;SDS011;10124;53.068;18.224;2023-04-24T05:48:07;21.17;;;16.63;;
19923;SDS011;10124;53.068;18.224;2023-04-24T05:50:34;19.38;;;16.05;;
19923;SDS011;10124;53.068;18.224;2023-04-24T05:53:03;21.27;;;15.77;;
19923;SDS011;10124;53.068;18.224;2023-04-24T05:55:33;21.52;;;14.35;;
19923;SDS011;10124;53.068;18.224;2023-04-24T05:58:01;19.75;;;14.73;;
19923;SDS011;10124;53.068;18.224;2023-04-24T06:00:29;17.15;;;13.45;;
19923;SDS011;10124;53.068;18.224;2023-04-24T06:03:04;16.10;;;13.38;;
19923;SDS011;10124;53.068;18.224;2023-04-24T06:05:32;16.80;;;11.85;;
19923;SDS011;10124;53.068;18.224;2023-04-24T06:08:02;17.17;;;12.30;;
19923;SDS011;10124;53.068;18.224;2023-04-24T06:10:35;17.23;;;12.10;;
19923;SDS011;10124;53.068;18.224;2023-04-24T06:13:03;14.48;;;11.25;;
19923;SDS011;10124;53.068;18.224;2023-04-24T06:15:33;13.57;;;10.60;;
19923;SDS011;10124;53.068;18.224;2023-04-24T06:18:06;16.13;;;11.23;;
19923;SDS011;10124;53.068;18.224;2023-04-24T06:20:35;15.35;;;11.68;;
19923;SDS011;10124;53.068;18.224;2023-04-24T06:23:03;20.13;;;11.57;;
19923;SDS011;10124;53.068;18.224;2023-04-24T06:25:32;16.42;;;11.07;;
19923;SDS011;10124;53.068;18.224;2023-04-24T06:28:00;15.90;;;11.65;;
19923;SDS011;10124;53.068;18.224;2023-04-24T06:30:29;20.02;;;12.70;;
19923;SDS011;10124;53.068;18.224;2023-04-24T06:32:57;17.42;;;12.57;;
19923;SDS011;10124;53.068;18.224;2023-04-24T06:35:44;14.57;;;10.88;;
19923;SDS011;10124;53.068;18.224;2023-04-24T06:38:12;18.00;;;11.75;;
19923;SDS011;10124;53.068;18.224;2023-04-24T06:40:39;19.00;;;12.32;;
19923;SDS011;10124;53.068;18.224;2023-04-24T06:43:06;15.98;;;12.18;;
19923;SDS011;10124;53.068;18.224;2023-04-24T06:45:34;15.02;;;12.05;;
19923;SDS011;10124;53.068;18.224;2023-04-24T06:48:02;15.43;;;11.57;;
19923;SDS011;10124;53.068;18.224;2023-04-24T06:50:30;17.50;;;11.45;;
19923;SDS011;10124;53.068;18.224;2023-04-24T06:52:57;20.63;;;14.48;;
19923;SDS011;10124;53.068;18.224;2023-04-24T06:55:25;19.35;;;14.10;;
19923;SDS011;10124;53.068;18.224;2023-04-24T06:57:52;19.77;;;12.50;;
19923;SDS011;10124;53.068;18.224;2023-04-24T07:00:19;25.00;;;15.88;;
19923;SDS011;10124;53.068;18.224;2023-04-24T07:02:48;20.92;;;12.73;;
19923;SDS011;10124;53.068;18.224;2023-04-24T07:05:16;20.83;;;13.38;;
19923;SDS011;10124;53.068;18.224;2023-04-24T07:07:47;20.35;;;14.43;;
19923;SDS011;10124;53.068;18.224;2023-04-24T07:10:15;21.50;;;14.20;;
19923;SDS011;10124;53.068;18.224;2023-04-24T07:12:43;21.08;;;14.07;;
19923;SDS011;10124;53.068;18.224;2023-04-24T07:15:11;16.63;;;11.85;;
19923;SDS011;10124;53.068;18.224;2023-04-24T07:17:39;21.92;;;12.93;;
19923;SDS011;10124;53.068;18.224;2023-04-24T07:20:15;16.30;;;11.18;;
19923;SDS011;10124;53.068;18.224;2023-04-24T07:22:43;15.85;;;11.07;;
19923;SDS011;10124;53.068;18.224;2023-04-24T07:25:10;16.23;;;11.13;;
19923;SDS011;10124;53.068;18.224;2023-04-24T07:27:38;15.60;;;10.85;;
19923;SDS011;10124;53.068;18.224;2023-04-24T07:30:06;15.57;;;11.00;;
19923;SDS011;10124;53.068;18.224;2023-04-24T07:32:34;18.45;;;10.90;;
19923;SDS011;10124;53.068;18.224;2023-04-24T07:35:01;19.05;;;11.63;;
19923;SDS011;10124;53.068;18.224;2023-04-24T07:37:29;15.65;;;11.60;;
19923;SDS011;10124;53.068;18.224;2023-04-24T07:39:56;21.08;;;10.60;;
19923;SDS011;10124;53.068;18.224;2023-04-24T07:42:24;19.10;;;11.32;;
19923;SDS011;10124;53.068;18.224;2023-04-24T07:44:52;14.05;;;10.25;;
19923;SDS011;10124;53.068;18.224;2023-04-24T07:47:20;13.27;;;9.73;;
19923;SDS011;10124;53.068;18.224;2023-04-24T07:49:48;15.85;;;10.98;;
19923;SDS011;10124;53.068;18.224;2023-04-24T07:52:16;14.85;;;10.25;;
19923;SDS011;10124;53.068;18.224;2023-04-24T07:54:43;14.88;;;9.50;;
19923;SDS011;10124;53.068;18.224;2023-04-24T07:57:11;15.75;;;10.65;;
19923;SDS011;10124;53.068;18.224;2023-04-24T07:59:40;16.02;;;10.00;;
19923;SDS011;10124;53.068;18.224;2023-04-24T08:02:08;10.43;;;8.40;;
19923;SDS011;10124;53.068;18.224;2023-04-24T08:04:36;10.70;;;8.32;;
19923;SDS011;10124;53.068;18.224;2023-04-24T08:07:04;13.82;;;8.25;;
19923;SDS011;10124;53.068;18.224;2023-04-24T08:09:32;12.07;;;7.55;;
19923;SDS011;10124;53.068;18.224;2023-04-24T08:11:59;9.30;;;6.75;;
19923;SDS011;10124;53.068;18.224;2023-04-24T08:14:28;11.25;;;8.25;;
19923;SDS011;10124;53.068;18.224;2023-04-24T08:16:55;10.85;;;7.07;;
19923;SDS011;10124;53.068;18.224;2023-04-24T08:19:23;10.85;;;7.53;;
19923;SDS011;10124;53.068;18.224;2023-04-24T08:21:52;8.25;;;6.80;;
19923;SDS011;10124;53.068;18.224;2023-04-24T08:24:19;11.52;;;7.82;;
19923;SDS011;10124;53.068;18.224;2023-04-24T08:26:46;9.93;;;6.88;;
19923;SDS011;10124;53.068;18.224;2023-04-24T08:29:16;13.05;;;7.72;;
19923;SDS011;10124;53.068;18.224;2023-04-24T08:31:44;9.75;;;7.25;;
19923;SDS011;10124;53.068;18.224;2023-04-24T08:34:11;8.65;;;6.75;;
19923;SDS011;10124;53.068;18.224;2023-04-24T08:36:39;9.48;;;6.82;;
19923;SDS011;10124;53.068;18.224;2023-04-24T08:39:12;10.70;;;6.65;;
19923;SDS011;10124;53.068;18.224;2023-04-24T08:41:41;12.90;;;6.95;;
19923;SDS011;10124;53.068;18.224;2023-04-24T08:44:12;8.50;;;6.65;;
19923;SDS011;10124;53.068;18.224;2023-04-24T08:46:43;9.13;;;6.10;;
19923;SDS011;10124;53.068;18.224;2023-04-24T08:49:14;9.98;;;6.72;;
19923;SDS011;10124;53.068;18.224;2023-04-24T08:51:46;9.60;;;6.65;;
19923;SDS011;10124;53.068;18.224;2023-04-24T08:54:14;10.07;;;6.60;;
19923;SDS011;10124;53.068;18.224;2023-04-24T08:56:43;7.63;;;6.63;;
19923;SDS011;10124;53.068;18.224;2023-04-24T08:59:11;11.35;;;7.53;;
19923;SDS011;10124;53.068;18.224;2023-04-24T09:01:40;13.15;;;7.18;;
19923;SDS011;10124;53.068;18.224;2023-04-24T09:04:08;7.53;;;5.95;;
19923;SDS011;10124;53.068;18.224;2023-04-24T09:06:38;27.90;;;6.97;;
19923;SDS011;10124;53.068;18.224;2023-04-24T09:09:05;9.63;;;7.10;;
19923;SDS011;10124;53.068;18.224;2023-04-24T09:11:33;12.57;;;6.80;;
19923;SDS011;10124;53.068;18.224;2023-04-24T09:14:01;15.18;;;7.07;;
19923;SDS011;10124;53.068;18.224;2023-04-24T09:16:29;8.57;;;6.65;;
19923;SDS011;10124;53.068;18.224;2023-04-24T09:18:58;13.45;;;7.05;;
19923;SDS011;10124;53.068;18.224;2023-04-24T09:21:31;12.70;;;6.75;;
19923;SDS011;10124;53.068;18.224;2023-04-24T09:24:01;12.85;;;9.35;;
19923;SDS011;10124;53.068;18.224;2023-04-24T09:26:31;10.80;;;7.20;;
19923;SDS011;10124;53.068;18.224;2023-04-24T09:29:00;9.20;;;6.50;;
19923;SDS011;10124;53.068;18.224;2023-04-24T09:31:28;11.00;;;6.65;;
19923;SDS011;10124;53.068;18.224;2023-04-24T09:33:57;9.75;;;6.10;;
19923;SDS011;10124;53.068;18.224;2023-04-24T09:36:32;19.00;;;6.07;;
19923;SDS011;10124;53.068;18.224;2023-04-24T09:39:02;7.63;;;4.90;;
19923;SDS011;10124;53.068;18.224;2023-04-24T09:41:35;7.13;;;5.00;;
19923;SDS011;10124;53.068;18.224;2023-04-24T09:44:15;9.30;;;5.03;;
19923;SDS011;10124;53.068;18.224;2023-04-24T09:46:45;7.82;;;5.32;;
19923;SDS011;10124;53.068;18.224;2023-04-24T09:49:16;8.38;;;3.90;;
19923;SDS011;10124;53.068;18.224;2023-04-24T09:51:52;6.18;;;4.70;;
19923;SDS011;10124;53.068;18.224;2023-04-24T09:54:20;6.22;;;4.60;;
19923;SDS011;10124;53.068;18.224;2023-04-24T09:56:49;5.85;;;4.32;;
19923;SDS011;10124;53.068;18.224;2023-04-24T09:59:17;6.32;;;4.28;;
19923;SDS011;10124;53.068;18.224;2023-04-24T10:01:46;6.80;;;4.15;;
19923;SDS011;10124;53.068;18.224;2023-04-24T10:04:16;8.50;;;4.50;;
19923;SDS011;10124;53.068;18.224;2023-04-24T10:06:52;8.23;;;4.18;;
19923;SDS011;10124;53.068;18.224;2023-04-24T10:09:22;9.43;;;5.00;;
19923;SDS011;10124;53.068;18.224;2023-04-24T10:11:52;21.10;;;5.25;;
19923;SDS011;10124;53.068;18.224;2023-04-24T10:14:21;6.25;;;4.38;;
19923;SDS011;10124;53.068;18.224;2023-04-24T10:16:51;9.73;;;5.00;;
19923;SDS011;10124;53.068;18.224;2023-04-24T10:19:20;10.18;;;5.30;;
19923;SDS011;10124;53.068;18.224;2023-04-24T10:21:49;7.13;;;5.05;;
19923;SDS011;10124;53.068;18.224;2023-04-24T10:24:17;9.07;;;5.03;;
19923;SDS011;10124;53.068;18.224;2023-04-24T10:26:48;7.97;;;4.82;;
19923;SDS011;10124;53.068;18.224;2023-04-24T10:29:17;8.50;;;5.05;;
19923;SDS011;10124;53.068;18.224;2023-04-24T10:31:46;6.72;;;4.50;;
19923;SDS011;10124;53.068;18.224;2023-04-24T10:34:14;6.95;;;5.18;;
19923;SDS011;10124;53.068;18.224;2023-04-24T10:36:49;13.00;;;6.22;;
19923;SDS011;10124;53.068;18.224;2023-04-24T10:39:18;13.35;;;7.30;;
19923;SDS011;10124;53.068;18.224;2023-04-24T10:41:54;10.88;;;6.75;;
19923;SDS011;10124;53.068;18.224;2023-04-24T10:44:25;9.50;;;6.28;;
19923;SDS011;10124;53.068;18.224;2023-04-24T10:47:03;9.38;;;6.30;;
19923;SDS011;10124;53.068;18.224;2023-04-24T10:49:31;9.63;;;6.50;;
19923;SDS011;10124;53.068;18.224;2023-04-24T10:52:03;9.50;;;6.38;;
19923;SDS011;10124;53.068;18.224;2023-04-24T10:59:49;7.45;;;5.65;;
19923;SDS011;10124;53.068;18.224;2023-04-24T11:02:36;11.93;;;5.97;;
19923;SDS011;10124;53.068;18.224;2023-04-24T11:05:08;22.42;;;6.88;;
19923;SDS011;10124;53.068;18.224;2023-04-24T11:14:01;15.52;;;6.38;;
19923;SDS011;10124;53.068;18.224;2023-04-24T11:18:51;12.52;;;7.82;;
19923;SDS011;10124;53.068;18.224;2023-04-24T11:21:30;9.45;;;6.82;;
19923;SDS011;10124;53.068;18.224;2023-04-24T11:26:55;11.15;;;7.47;;
19923;SDS011;10124;53.068;18.224;2023-04-24T11:29:37;10.48;;;7.38;;
19923;SDS011;10124;53.068;18.224;2023-04-24T11:34:59;22.02;;;7.70;;
19923;SDS011;10124;53.068;18.224;2023-04-24T11:37:40;9.05;;;7.10;;
19923;SDS011;10124;53.068;18.224;2023-04-24T11:40:12;10.93;;;7.07;;
19923;SDS011;10124;53.068;18.224;2023-04-24T11:42:45;11.90;;;7.30;;
19923;SDS011;10124;53.068;18.224;2023-04-24T11:45:14;10.00;;;7.07;;
19923;SDS011;10124;53.068;18.224;2023-04-24T11:47:43;8.65;;;6.95;;
19923;SDS011;10124;53.068;18.224;2023-04-24T11:50:13;25.15;;;8.30;;
19923;SDS011;10124;53.068;18.224;2023-04-24T11:52:45;10.07;;;7.13;;
19923;SDS011;10124;53.068;18.224;2023-04-24T11:57:44;13.35;;;9.18;;
19923;SDS011;10124;53.068;18.224;2023-04-24T12:00:16;9.25;;;7.00;;
19923;SDS011;10124;53.068;18.224;2023-04-24T12:02:46;11.93;;;7.85;;
19923;SDS011;10124;53.068;18.224;2023-04-24T12:05:19;15.90;;;9.23;;
19923;SDS011;10124;53.068;18.224;2023-04-24T12:07:48;10.63;;;7.97;;
19923;SDS011;10124;53.068;18.224;2023-04-24T12:10:20;14.32;;;8.50;;
19923;SDS011;10124;53.068;18.224;2023-04-24T12:12:48;14.52;;;8.75;;
19923;SDS011;10124;53.068;18.224;2023-04-24T12:15:21;14.65;;;8.65;;
19923;SDS011;10124;53.068;18.224;2023-04-24T12:17:53;11.38;;;7.63;;
19923;SDS011;10124;53.068;18.224;2023-04-24T12:20:28;12.60;;;8.00;;
19923;SDS011;10124;53.068;18.224;2023-04-24T12:22:58;11.13;;;8.13;;
19923;SDS011;10124;53.068;18.224;2023-04-24T12:25:28;12.98;;;7.53;;
19923;SDS011;10124;53.068;18.224;2023-04-24T12:30:33;11.32;;;7.78;;
19923;SDS011;10124;53.068;18.224;2023-04-24T12:33:04;10.55;;;7.00;;
19923;SDS011;10124;53.068;18.224;2023-04-24T12:35:32;8.05;;;6.15;;
19923;SDS011;10124;53.068;18.224;2023-04-24T12:38:06;9.88;;;5.55;;
19923;SDS011;10124;53.068;18.224;2023-04-24T12:40:37;6.43;;;4.53;;
19923;SDS011;10124;53.068;18.224;2023-04-24T12:43:14;7.25;;;4.55;;
19923;SDS011;10124;53.068;18.224;2023-04-24T12:45:42;9.38;;;4.68;;
19923;SDS011;10124;53.068;18.224;2023-04-24T12:48:11;8.77;;;4.57;;
19923;SDS011;10124;53.068;18.224;2023-04-24T12:50:43;5.28;;;4.57;;
19923;SDS011;10124;53.068;18.224;2023-04-24T12:53:12;6.97;;;4.25;;
19923;SDS011;10124;53.068;18.224;2023-04-24T12:55:40;5.32;;;4.13;;
19923;SDS011;10124;53.068;18.224;2023-04-24T12:58:08;5.97;;;4.45;;
19923;SDS011;10124;53.068;18.224;2023-04-24T13:00:36;6.18;;;4.25;;
19923;SDS011;10124;53.068;18.224;2023-04-24T13:03:04;6.70;;;4.35;;
19923;SDS011;10124;53.068;18.224;2023-04-24T13:05:32;7.53;;;4.43;;
19923;SDS011;10124;53.068;18.224;2023-04-24T13:07:59;7.43;;;4.38;;
19923;SDS011;10124;53.068;18.224;2023-04-24T13:10:26;8.20;;;4.65;;
19923;SDS011;10124;53.068;18.224;2023-04-24T13:12:54;5.32;;;4.15;;
19923;SDS011;10124;53.068;18.224;2023-04-24T13:15:21;7.82;;;4.07;;
19923;SDS011;10124;53.068;18.224;2023-04-24T13:17:50;9.57;;;4.32;;
19923;SDS011;10124;53.068;18.224;2023-04-24T13:20:17;4.20;;;3.55;;
19923;SDS011;10124;53.068;18.224;2023-04-24T13:22:45;5.68;;;3.65;;
19923;SDS011;10124;53.068;18.224;2023-04-24T13:25:13;6.30;;;4.28;;
19923;SDS011;10124;53.068;18.224;2023-04-24T13:27:43;8.40;;;3.90;;
19923;SDS011;10124;53.068;18.224;2023-04-24T13:30:11;7.75;;;4.22;;
19923;SDS011;10124;53.068;18.224;2023-04-24T13:32:38;6.60;;;4.57;;
19923;SDS011;10124;53.068;18.224;2023-04-24T13:35:06;6.43;;;4.22;;
19923;SDS011;10124;53.068;18.224;2023-04-24T13:37:33;6.55;;;4.70;;
19923;SDS011;10124;53.068;18.224;2023-04-24T13:40:02;5.65;;;4.57;;
19923;SDS011;10124;53.068;18.224;2023-04-24T13:42:33;6.72;;;5.38;;
19923;SDS011;10124;53.068;18.224;2023-04-24T13:45:00;8.15;;;5.07;;
19923;SDS011;10124;53.068;18.224;2023-04-24T13:47:48;8.75;;;5.57;;
19923;SDS011;10124;53.068;18.224;2023-04-24T13:50:18;29.73;;;7.35;;
19923;SDS011;10124;53.068;18.224;2023-04-24T13:52:45;12.00;;;6.60;;
19923;SDS011;10124;53.068;18.224;2023-04-24T13:55:12;7.93;;;5.93;;
19923;SDS011;10124;53.068;18.224;2023-04-24T13:57:40;10.43;;;6.80;;
19923;SDS011;10124;53.068;18.224;2023-04-24T14:00:07;17.27;;;6.82;;
19923;SDS011;10124;53.068;18.224;2023-04-24T14:02:37;11.90;;;7.28;;
19923;SDS011;10124;53.068;18.224;2023-04-24T14:05:05;13.10;;;7.25;;
19923;SDS011;10124;53.068;18.224;2023-04-24T14:07:33;9.95;;;7.05;;
19923;SDS011;10124;53.068;18.224;2023-04-24T14:10:01;13.23;;;7.40;;
19923;SDS011;10124;53.068;18.224;2023-04-24T14:12:28;17.63;;;7.63;;
19923;SDS011;10124;53.068;18.224;2023-04-24T14:14:56;39.60;;;10.35;;
19923;SDS011;10124;53.068;18.224;2023-04-24T14:17:23;17.77;;;7.07;;
19923;SDS011;10124;53.068;18.224;2023-04-24T14:19:51;8.13;;;5.03;;
19923;SDS011;10124;53.068;18.224;2023-04-24T14:22:23;65.20;;;8.30;;
19923;SDS011;10124;53.068;18.224;2023-04-24T14:24:50;13.77;;;6.30;;
19923;SDS011;10124;53.068;18.224;2023-04-24T14:27:18;7.22;;;3.58;;
19923;SDS011;10124;53.068;18.224;2023-04-24T14:29:46;11.00;;;3.80;;
19923;SDS011;10124;53.068;18.224;2023-04-24T14:32:13;8.48;;;3.58;;
19923;SDS011;10124;53.068;18.224;2023-04-24T14:34:42;9.07;;;3.90;;
19923;SDS011;10124;53.068;18.224;2023-04-24T14:37:09;12.07;;;4.05;;
19923;SDS011;10124;53.068;18.224;2023-04-24T14:39:37;5.78;;;3.38;;
19923;SDS011;10124;53.068;18.224;2023-04-24T14:42:04;7.20;;;4.45;;
19923;SDS011;10124;53.068;18.224;2023-04-24T14:44:33;5.30;;;3.58;;
19923;SDS011;10124;53.068;18.224;2023-04-24T14:47:00;7.28;;;3.80;;
19923;SDS011;10124;53.068;18.224;2023-04-24T14:49:29;10.82;;;3.78;;
19923;SDS011;10124;53.068;18.224;2023-04-24T14:51:57;110.35;;;9.27;;
19923;SDS011;10124;53.068;18.224;2023-04-24T14:54:26;7.55;;;4.28;;
19923;SDS011;10124;53.068;18.224;2023-04-24T14:56:54;12.73;;;5.95;;